PWSweather.com
Personal Weather Stations
Station Observations
REUBENS
Camas Prairie, Reubens, ID

Camas PrairieReubens, ID

Lat: 46.35417, Lon: -116.53167

Elevation: 3480

Station Type: Davis VantagePro 2

http://www.theobrienranch.com/wx/wx.htm

High Low Average
Temperature 53.7°F12.1°F 31.5°F-0.3°F 42.3°F5.7°F
Dew Point 36.4°F2.4°F 23.8°F-4.6°F 29.4°F-1.4°F
Winds 6.3 mph N10.1 mph N Calm Calm 2.2 mph 3.5 mph
Wind Gusts 11.0 mph17.7 mph -- 3.9 mph6.3 mph
Humidity 90% 34% 63%
Pressure 30.30 in1026.10 in 30.01 in1016.30 in -
Precipitation 0.00 in0.00 in - -
Hour Temp Dew Point Humidity Winds Wind Gusts Pressure Precip Precip Rate Daily Precip Total
12:00 AM 31.5°F-0.3°C 28.9°F-1.7°C 90% 2.5 mph WNW4.0 kmh WNW 3.0 mph4.8 kmh 30.01 in1016.3 mb - 0.00 in0.0 mm 0.00 in0.0 mm
12:30 AM 33.4°F0.8°C 30.2°F-1.0°C 88% Calm Calm -- 30.01 in1016.3 mb - 0.00 in0.0 mm 0.00 in0.0 mm
01:00 AM 32.7°F0.4°C 30.1°F-1.1°C 90% Calm Calm -- 30.02 in1016.6 mb - 0.00 in0.0 mm 0.00 in0.0 mm
01:30 AM 34.3°F1.3°C 31.1°F-0.5°C 88% Calm Calm -- 30.02 in1016.6 mb - 0.00 in0.0 mm 0.00 in0.0 mm
02:00 AM 34.4°F1.3°C 30.4°F-0.9°C 85% 1.6 mph WNW2.6 kmh WNW 3.0 mph4.8 kmh 30.03 in1016.9 mb - 0.00 in0.0 mm 0.00 in0.0 mm
02:30 AM 33.4°F0.8°C 29.6°F-1.3°C 86% 2.3 mph WNW3.7 kmh WNW 3.0 mph4.8 kmh 30.05 in1017.6 mb - 0.00 in0.0 mm 0.00 in0.0 mm
03:00 AM 33.6°F0.9°C 29.6°F-1.3°C 85% 1.4 mph WNW2.3 kmh WNW 2.0 mph3.2 kmh 30.05 in1017.6 mb - 0.00 in0.0 mm 0.00 in0.0 mm
03:30 AM 34.1°F1.2°C 29.2°F-1.6°C 82% 1.3 mph WNW2.1 kmh WNW 2.0 mph3.2 kmh 30.05 in1017.6 mb - 0.00 in0.0 mm 0.00 in0.0 mm
04:00 AM 33.7°F0.9°C 29.1°F-1.6°C 83% 1.2 mph WNW1.9 kmh WNW 2.0 mph3.2 kmh 30.06 in1017.9 mb - 0.00 in0.0 mm 0.00 in0.0 mm
04:30 AM 33.3°F0.7°C 28.4°F-2.0°C 82% 1.4 mph WNW2.3 kmh WNW 2.0 mph3.2 kmh 30.08 in1018.6 mb - 0.00 in0.0 mm 0.00 in0.0 mm
05:00 AM 33.3°F0.7°C 28.7°F-1.8°C 83% 1.9 mph WNW3.1 kmh WNW 3.0 mph4.8 kmh 30.09 in1019.0 mb - 0.00 in0.0 mm 0.00 in0.0 mm
05:30 AM 33.2°F0.7°C 28.6°F-1.9°C 83% 2.0 mph WNW3.2 kmh WNW 3.0 mph4.8 kmh 30.10 in1019.3 mb - 0.00 in0.0 mm 0.00 in0.0 mm
06:00 AM 33.5°F0.8°C 28.9°F-1.7°C 83% 2.2 mph WNW3.5 kmh WNW 3.0 mph4.8 kmh 30.12 in1020.0 mb - 0.00 in0.0 mm 0.00 in0.0 mm
06:30 AM 34.1°F1.2°C 29.7°F-1.3°C 84% Calm Calm -- 30.13 in1020.3 mb - 0.00 in0.0 mm 0.00 in0.0 mm
07:00 AM 36.5°F2.5°C 31.8°F-0.1°C 83% 0.3 mph NW0.5 kmh NW 2.0 mph3.2 kmh 30.14 in1020.7 mb - 0.00 in0.0 mm 0.00 in0.0 mm
07:30 AM 39.8°F4.3°C 32.9°F0.5°C 76% 1.7 mph NW2.7 kmh NW 4.0 mph6.4 kmh 30.14 in1020.7 mb - 0.00 in0.0 mm 0.00 in0.0 mm
08:00 AM 42.4°F5.8°C 33.3°F0.7°C 70% 2.4 mph NW3.9 kmh NW 5.0 mph8.0 kmh 30.15 in1021.0 mb - 0.00 in0.0 mm 0.00 in0.0 mm
08:30 AM 42.8°F6.0°C 31.1°F-0.5°C 63% 3.4 mph NW5.5 kmh NW 7.0 mph11.3 kmh 30.16 in1021.3 mb - 0.00 in0.0 mm 0.00 in0.0 mm
09:00 AM 45.0°F7.2°C 32.3°F0.2°C 61% 3.7 mph NW6.0 kmh NW 7.0 mph11.3 kmh 30.17 in1021.7 mb - 0.00 in0.0 mm 0.00 in0.0 mm
09:30 AM 45.1°F7.3°C 32.0°F0.0°C 60% 1.8 mph WNW2.9 kmh WNW 3.0 mph4.8 kmh 30.18 in1022.0 mb - 0.00 in0.0 mm 0.00 in0.0 mm
10:00 AM 45.2°F7.3°C 32.5°F0.3°C 61% 3.4 mph WNW5.5 kmh WNW 5.0 mph8.0 kmh 30.20 in1022.7 mb - 0.00 in0.0 mm 0.00 in0.0 mm
10:30 AM 45.2°F7.3°C 33.7°F0.9°C 64% 3.5 mph W5.6 kmh W 10.0 mph16.1 kmh 30.20 in1022.7 mb - 0.00 in0.0 mm 0.00 in0.0 mm
11:00 AM 48.3°F9.1°C 34.2°F1.2°C 58% 2.0 mph NNW3.2 kmh NNW 3.0 mph4.8 kmh 30.22 in1023.4 mb - 0.00 in0.0 mm 0.00 in0.0 mm
11:30 AM 46.6°F8.1°C 33.0°F0.6°C 59% 4.4 mph NNW7.1 kmh NNW 7.0 mph11.3 kmh 30.23 in1023.7 mb - 0.00 in0.0 mm 0.00 in0.0 mm
12:00 PM 49.8°F9.9°C 31.9°F-0.1°C 50% 4.0 mph NW6.4 kmh NW 5.0 mph8.0 kmh 30.21 in1023.0 mb - 0.00 in0.0 mm 0.00 in0.0 mm
12:30 PM 50.6°F10.3°C 36.4°F2.4°C 58% 1.5 mph NW2.4 kmh NW 6.0 mph9.7 kmh 30.20 in1022.7 mb - 0.00 in0.0 mm 0.00 in0.0 mm
01:00 PM 52.0°F11.1°C 34.4°F1.3°C 51% 3.3 mph N5.3 kmh N 6.0 mph9.7 kmh 30.19 in1022.4 mb - 0.00 in0.0 mm 0.00 in0.0 mm
01:30 PM 51.2°F10.7°C 32.2°F0.1°C 48% 3.1 mph NW5.0 kmh NW 6.0 mph9.7 kmh 30.20 in1022.7 mb - 0.00 in0.0 mm 0.00 in0.0 mm
02:00 PM 51.2°F10.7°C 30.0°F-1.1°C 44% 4.3 mph NNW6.9 kmh NNW 7.0 mph11.3 kmh 30.21 in1023.0 mb - 0.00 in0.0 mm 0.00 in0.0 mm
02:30 PM 48.8°F9.3°C 30.5°F-0.8°C 49% 3.7 mph N6.0 kmh N 11.0 mph17.7 kmh 30.23 in1023.7 mb - 0.00 in0.0 mm 0.00 in0.0 mm
03:00 PM 52.7°F11.5°C 32.5°F0.3°C 46% 2.3 mph NW3.7 kmh NW 3.0 mph4.8 kmh 30.21 in1023.0 mb - 0.00 in0.0 mm 0.00 in0.0 mm
03:30 PM 52.5°F11.4°C 32.8°F0.4°C 47% 2.3 mph NW3.7 kmh NW 4.0 mph6.4 kmh 30.21 in1023.0 mb - 0.00 in0.0 mm 0.00 in0.0 mm
04:00 PM 53.7°F12.1°C 30.0°F-1.1°C 40% 4.2 mph W6.8 kmh W 11.0 mph17.7 kmh 30.22 in1023.4 mb - 0.00 in0.0 mm 0.00 in0.0 mm
04:30 PM 52.3°F11.3°C 31.0°F-0.6°C 44% 6.3 mph N10.1 kmh N 11.0 mph17.7 kmh 30.23 in1023.7 mb - 0.00 in0.0 mm 0.00 in0.0 mm
05:00 PM 53.3°F11.8°C 27.0°F-2.8°C 36% 3.1 mph W5.0 kmh W 4.0 mph6.4 kmh 30.22 in1023.4 mb - 0.00 in0.0 mm 0.00 in0.0 mm
05:30 PM 51.8°F11.0°C 25.6°F-3.6°C 36% 5.6 mph W9.0 kmh W 6.0 mph9.7 kmh 30.23 in1023.7 mb - 0.00 in0.0 mm 0.00 in0.0 mm
06:00 PM 51.9°F11.1°C 26.4°F-3.1°C 37% 3.4 mph NW5.5 kmh NW 6.0 mph9.7 kmh 30.23 in1023.7 mb - 0.00 in0.0 mm 0.00 in0.0 mm
06:30 PM 51.8°F11.0°C 24.3°F-4.3°C 34% 1.5 mph NW2.4 kmh NW 5.0 mph8.0 kmh 30.23 in1023.7 mb - 0.00 in0.0 mm 0.00 in0.0 mm
07:00 PM 48.9°F9.4°C 25.0°F-3.9°C 39% Calm Calm 1.0 mph1.6 kmh 30.22 in1023.4 mb - 0.00 in0.0 mm 0.00 in0.0 mm
07:30 PM 47.4°F8.6°C 24.8°F-4.0°C 41% Calm Calm -- 30.23 in1023.7 mb - 0.00 in0.0 mm 0.00 in0.0 mm
08:00 PM 45.6°F7.6°C 23.8°F-4.6°C 42% Calm Calm -- 30.23 in1023.7 mb - 0.00 in0.0 mm 0.00 in0.0 mm
08:30 PM 43.7°F6.5°C 25.7°F-3.5°C 49% Calm Calm -- 30.25 in1024.4 mb - 0.00 in0.0 mm 0.00 in0.0 mm
09:00 PM 38.9°F3.8°C 25.0°F-3.9°C 57% 2.5 mph NW4.0 kmh NW 3.0 mph4.8 kmh 30.28 in1025.4 mb - 0.00 in0.0 mm 0.00 in0.0 mm
09:30 PM 38.4°F3.6°C 25.7°F-3.5°C 60% 2.3 mph NW3.7 kmh NW 3.0 mph4.8 kmh 30.29 in1025.7 mb - 0.00 in0.0 mm 0.00 in0.0 mm
10:00 PM 36.5°F2.5°C 25.1°F-3.8°C 63% 2.3 mph NW3.7 kmh NW 3.0 mph4.8 kmh 30.29 in1025.7 mb - 0.00 in0.0 mm 0.00 in0.0 mm
10:30 PM 35.2°F1.8°C 24.6°F-4.1°C 65% 1.8 mph NW2.9 kmh NW 2.0 mph3.2 kmh 30.30 in1026.1 mb - 0.00 in0.0 mm 0.00 in0.0 mm
11:00 PM 34.3°F1.3°C 24.5°F-4.2°C 67% 2.6 mph SW4.2 kmh SW 3.0 mph4.8 kmh 30.30 in1026.1 mb - 0.00 in0.0 mm 0.00 in0.0 mm
11:30 PM 34.4°F1.3°C 23.8°F-4.6°C 65% 2.1 mph SW3.4 kmh SW 3.0 mph4.8 kmh 30.30 in1026.1 mb - 0.00 in0.0 mm 0.00 in0.0 mm